sensor_id;sensor_type;location;lat;lon;timestamp;P1;P2;P0
45990;PMS5003;31721;41.740;-88.000;2023-03-23T00:02:23;28;28;
45990;PMS5003;31721;41.740;-88.000;2023-03-23T00:04:52;25;23;
45990;PMS5003;31721;41.740;-88.000;2023-03-23T00:07:21;32;27;
45990;PMS5003;31721;41.740;-88.000;2023-03-23T00:09:50;22;21;
45990;PMS5003;31721;41.740;-88.000;2023-03-23T00:12:19;24;24;
45990;PMS5003;31721;41.740;-88.000;2023-03-23T00:14:47;24;22;
45990;PMS5003;31721;41.740;-88.000;2023-03-23T00:17:15;27;23;
45990;PMS5003;31721;41.740;-88.000;2023-03-23T00:19:44;23;21;
45990;PMS5003;31721;41.740;-88.000;2023-03-23T00:22:13;27;24;
45990;PMS5003;31721;41.740;-88.000;2023-03-23T00:24:42;23;22;
45990;PMS5003;31721;41.740;-88.000;2023-03-23T00:27:11;23;19;
45990;PMS5003;31721;41.740;-88.000;2023-03-23T00:29:40;28;24;
45990;PMS5003;31721;41.740;-88.000;2023-03-23T00:32:08;23;22;
45990;PMS5003;31721;41.740;-88.000;2023-03-23T00:34:37;22;19;
45990;PMS5003;31721;41.740;-88.000;2023-03-23T00:37:05;23;22;
45990;PMS5003;31721;41.740;-88.000;2023-03-23T00:39:34;22;19;
45990;PMS5003;31721;41.740;-88.000;2023-03-23T00:42:03;26;24;
45990;PMS5003;31721;41.740;-88.000;2023-03-23T00:44:32;26;23;
45990;PMS5003;31721;41.740;-88.000;2023-03-23T00:47:01;25;24;
45990;PMS5003;31721;41.740;-88.000;2023-03-23T00:49:30;36;29;
45990;PMS5003;31721;41.740;-88.000;2023-03-23T00:51:57;35;26;
45990;PMS5003;31721;41.740;-88.000;2023-03-23T00:54:25;34;28;
45990;PMS5003;31721;41.740;-88.000;2023-03-23T00:56:54;32;27;
45990;PMS5003;31721;41.740;-88.000;2023-03-23T00:59:23;31;27;
45990;PMS5003;31721;41.740;-88.000;2023-03-23T01:01:51;27;25;
45990;PMS5003;31721;41.740;-88.000;2023-03-23T01:04:20;24;24;
45990;PMS5003;31721;41.740;-88.000;2023-03-23T01:06:49;27;23;
45990;PMS5003;31721;41.740;-88.000;2023-03-23T01:09:18;34;30;
45990;PMS5003;31721;41.740;-88.000;2023-03-23T01:11:47;22;21;
45990;PMS5003;31721;41.740;-88.000;2023-03-23T01:14:18;31;26;
45990;PMS5003;31721;41.740;-88.000;2023-03-23T01:16:46;31;28;
45990;PMS5003;31721;41.740;-88.000;2023-03-23T01:19:15;31;28;
45990;PMS5003;31721;41.740;-88.000;2023-03-23T01:21:43;31;28;
45990;PMS5003;31721;41.740;-88.000;2023-03-23T01:24:12;32;27;
45990;PMS5003;31721;41.740;-88.000;2023-03-23T01:26:39;31;27;
45990;PMS5003;31721;41.740;-88.000;2023-03-23T01:29:07;34;28;
45990;PMS5003;31721;41.740;-88.000;2023-03-23T01:31:36;25;23;
45990;PMS5003;31721;41.740;-88.000;2023-03-23T01:34:04;19;19;
45990;PMS5003;31721;41.740;-88.000;2023-03-23T01:36:32;33;24;
45990;PMS5003;31721;41.740;-88.000;2023-03-23T01:39:01;27;24;
45990;PMS5003;31721;41.740;-88.000;2023-03-23T01:41:31;36;29;
45990;PMS5003;31721;41.740;-88.000;2023-03-23T01:44:02;26;26;
45990;PMS5003;31721;41.740;-88.000;2023-03-23T01:46:31;28;26;
45990;PMS5003;31721;41.740;-88.000;2023-03-23T01:49:01;25;24;
45990;PMS5003;31721;41.740;-88.000;2023-03-23T01:51:34;33;29;
45990;PMS5003;31721;41.740;-88.000;2023-03-23T01:54:04;25;25;
45990;PMS5003;31721;41.740;-88.000;2023-03-23T01:56:38;27;23;
45990;PMS5003;31721;41.740;-88.000;2023-03-23T01:59:11;27;23;
45990;PMS5003;31721;41.740;-88.000;2023-03-23T02:01:39;27;26;
45990;PMS5003;31721;41.740;-88.000;2023-03-23T02:04:08;33;28;
45990;PMS5003;31721;41.740;-88.000;2023-03-23T02:06:36;27;24;
45990;PMS5003;31721;41.740;-88.000;2023-03-23T02:09:05;26;25;
45990;PMS5003;31721;41.740;-88.000;2023-03-23T02:11:33;31;27;
45990;PMS5003;31721;41.740;-88.000;2023-03-23T02:14:02;39;32;
45990;PMS5003;31721;41.740;-88.000;2023-03-23T02:16:33;34;28;
45990;PMS5003;31721;41.740;-88.000;2023-03-23T02:19:10;33;30;
45990;PMS5003;31721;41.740;-88.000;2023-03-23T02:21:59;26;25;
45990;PMS5003;31721;41.740;-88.000;2023-03-23T02:24:54;26;24;
45990;PMS5003;31721;41.740;-88.000;2023-03-23T02:27:31;39;31;
45990;PMS5003;31721;41.740;-88.000;2023-03-23T02:30:14;41;32;
45990;PMS5003;31721;41.740;-88.000;2023-03-23T02:33:31;34;30;
45990;PMS5003;31721;41.740;-88.000;2023-03-23T02:36:09;24;23;
45990;PMS5003;31721;41.740;-88.000;2023-03-23T02:38:43;34;32;
45990;PMS5003;31721;41.740;-88.000;2023-03-23T02:41:18;32;28;
45990;PMS5003;31721;41.740;-88.000;2023-03-23T02:43:49;36;33;
45990;PMS5003;31721;41.740;-88.000;2023-03-23T02:46:18;31;29;
45990;PMS5003;31721;41.740;-88.000;2023-03-23T02:48:49;31;21;
45990;PMS5003;31721;41.740;-88.000;2023-03-23T02:51:20;25;21;
45990;PMS5003;31721;41.740;-88.000;2023-03-23T02:53:49;30;26;
45990;PMS5003;31721;41.740;-88.000;2023-03-23T02:56:23;22;20;
45990;PMS5003;31721;41.740;-88.000;2023-03-23T02:58:54;28;24;
45990;PMS5003;31721;41.740;-88.000;2023-03-23T03:01:56;29;25;
45990;PMS5003;31721;41.740;-88.000;2023-03-23T03:04:29;24;21;
45990;PMS5003;31721;41.740;-88.000;2023-03-23T03:07:03;33;28;
45990;PMS5003;31721;41.740;-88.000;2023-03-23T03:09:42;23;22;
45990;PMS5003;31721;41.740;-88.000;2023-03-23T03:12:17;31;28;
45990;PMS5003;31721;41.740;-88.000;2023-03-23T03:14:51;29;25;
45990;PMS5003;31721;41.740;-88.000;2023-03-23T03:17:26;29;25;
45990;PMS5003;31721;41.740;-88.000;2023-03-23T03:19:59;25;22;
45990;PMS5003;31721;41.740;-88.000;2023-03-23T03:22:30;32;25;
45990;PMS5003;31721;41.740;-88.000;2023-03-23T03:25:00;28;23;
45990;PMS5003;31721;41.740;-88.000;2023-03-23T03:27:28;21;16;
45990;PMS5003;31721;41.740;-88.000;2023-03-23T03:29:58;24;21;
45990;PMS5003;31721;41.740;-88.000;2023-03-23T03:32:33;22;19;
45990;PMS5003;31721;41.740;-88.000;2023-03-23T03:35:05;35;27;
45990;PMS5003;31721;41.740;-88.000;2023-03-23T03:37:34;24;21;
45990;PMS5003;31721;41.740;-88.000;2023-03-23T03:40:04;32;28;
45990;PMS5003;31721;41.740;-88.000;2023-03-23T03:42:33;24;23;
45990;PMS5003;31721;41.740;-88.000;2023-03-23T03:45:02;31;25;
45990;PMS5003;31721;41.740;-88.000;2023-03-23T03:47:30;28;24;
45990;PMS5003;31721;41.740;-88.000;2023-03-23T03:49:59;21;20;
45990;PMS5003;31721;41.740;-88.000;2023-03-23T03:52:26;24;22;
45990;PMS5003;31721;41.740;-88.000;2023-03-23T03:54:54;27;26;
45990;PMS5003;31721;41.740;-88.000;2023-03-23T03:57:22;32;30;
45990;PMS5003;31721;41.740;-88.000;2023-03-23T03:59:51;30;26;
45990;PMS5003;31721;41.740;-88.000;2023-03-23T04:02:19;23;23;
45990;PMS5003;31721;41.740;-88.000;2023-03-23T04:04:47;33;27;
45990;PMS5003;31721;41.740;-88.000;2023-03-23T04:07:15;23;20;
45990;PMS5003;31721;41.740;-88.000;2023-03-23T04:09:44;30;25;
45990;PMS5003;31721;41.740;-88.000;2023-03-23T04:12:13;33;26;
45990;PMS5003;31721;41.740;-88.000;2023-03-23T04:14:40;33;30;
45990;PMS5003;31721;41.740;-88.000;2023-03-23T04:17:08;31;25;
45990;PMS5003;31721;41.740;-88.000;2023-03-23T04:19:36;30;26;
45990;PMS5003;31721;41.740;-88.000;2023-03-23T04:22:04;36;32;
45990;PMS5003;31721;41.740;-88.000;2023-03-23T04:24:33;32;27;
45990;PMS5003;31721;41.740;-88.000;2023-03-23T04:27:00;27;26;
45990;PMS5003;31721;41.740;-88.000;2023-03-23T04:29:28;35;32;
45990;PMS5003;31721;41.740;-88.000;2023-03-23T04:31:56;26;23;
45990;PMS5003;31721;41.740;-88.000;2023-03-23T04:34:24;32;23;
45990;PMS5003;31721;41.740;-88.000;2023-03-23T04:36:52;33;31;
45990;PMS5003;31721;41.740;-88.000;2023-03-23T04:39:20;28;28;
45990;PMS5003;31721;41.740;-88.000;2023-03-23T04:41:48;27;24;
45990;PMS5003;31721;41.740;-88.000;2023-03-23T04:44:16;25;25;
45990;PMS5003;31721;41.740;-88.000;2023-03-23T04:46:44;32;30;
45990;PMS5003;31721;41.740;-88.000;2023-03-23T04:49:13;33;26;
45990;PMS5003;31721;41.740;-88.000;2023-03-23T04:51:42;31;30;
45990;PMS5003;31721;41.740;-88.000;2023-03-23T04:54:09;31;24;
45990;PMS5003;31721;41.740;-88.000;2023-03-23T04:56:37;33;30;
45990;PMS5003;31721;41.740;-88.000;2023-03-23T04:59:04;32;31;
45990;PMS5003;31721;41.740;-88.000;2023-03-23T05:01:32;31;30;
45990;PMS5003;31721;41.740;-88.000;2023-03-23T05:04:01;35;33;
45990;PMS5003;31721;41.740;-88.000;2023-03-23T05:06:29;34;27;
45990;PMS5003;31721;41.740;-88.000;2023-03-23T05:08:56;34;30;
45990;PMS5003;31721;41.740;-88.000;2023-03-23T05:11:24;35;31;
45990;PMS5003;31721;41.740;-88.000;2023-03-23T05:13:51;27;22;
45990;PMS5003;31721;41.740;-88.000;2023-03-23T05:16:19;33;24;
45990;PMS5003;31721;41.740;-88.000;2023-03-23T05:18:47;24;22;
45990;PMS5003;31721;41.740;-88.000;2023-03-23T05:21:15;34;26;
45990;PMS5003;31721;41.740;-88.000;2023-03-23T05:23:43;26;24;
45990;PMS5003;31721;41.740;-88.000;2023-03-23T05:26:10;32;28;
45990;PMS5003;31721;41.740;-88.000;2023-03-23T05:28:39;33;30;
45990;PMS5003;31721;41.740;-88.000;2023-03-23T05:31:07;32;26;
45990;PMS5003;31721;41.740;-88.000;2023-03-23T05:33:35;27;24;
45990;PMS5003;31721;41.740;-88.000;2023-03-23T05:36:02;27;26;
45990;PMS5003;31721;41.740;-88.000;2023-03-23T05:38:31;35;31;
45990;PMS5003;31721;41.740;-88.000;2023-03-23T05:41:00;37;27;
45990;PMS5003;31721;41.740;-88.000;2023-03-23T05:43:27;32;26;
45990;PMS5003;31721;41.740;-88.000;2023-03-23T05:45:55;23;21;
45990;PMS5003;31721;41.740;-88.000;2023-03-23T05:48:23;27;21;
45990;PMS5003;31721;41.740;-88.000;2023-03-23T05:50:50;28;28;
45990;PMS5003;31721;41.740;-88.000;2023-03-23T05:53:19;36;27;
45990;PMS5003;31721;41.740;-88.000;2023-03-23T05:55:47;41;31;
45990;PMS5003;31721;41.740;-88.000;2023-03-23T05:58:14;41;36;
45990;PMS5003;31721;41.740;-88.000;2023-03-23T06:00:42;42;35;
45990;PMS5003;31721;41.740;-88.000;2023-03-23T06:03:10;35;32;
45990;PMS5003;31721;41.740;-88.000;2023-03-23T06:05:41;41;36;
45990;PMS5003;31721;41.740;-88.000;2023-03-23T06:08:09;33;32;
45990;PMS5003;31721;41.740;-88.000;2023-03-23T06:10:37;34;30;
45990;PMS5003;31721;41.740;-88.000;2023-03-23T06:13:05;41;32;
45990;PMS5003;31721;41.740;-88.000;2023-03-23T06:15:34;25;24;
45990;PMS5003;31721;41.740;-88.000;2023-03-23T06:18:03;31;29;
45990;PMS5003;31721;41.740;-88.000;2023-03-23T06:20:32;36;35;
45990;PMS5003;31721;41.740;-88.000;2023-03-23T06:22:59;26;22;
45990;PMS5003;31721;41.740;-88.000;2023-03-23T06:25:27;26;24;
45990;PMS5003;31721;41.740;-88.000;2023-03-23T06:27:55;41;31;
45990;PMS5003;31721;41.740;-88.000;2023-03-23T06:30:23;30;23;
45990;PMS5003;31721;41.740;-88.000;2023-03-23T06:32:50;28;24;
45990;PMS5003;31721;41.740;-88.000;2023-03-23T06:35:19;26;22;
45990;PMS5003;31721;41.740;-88.000;2023-03-23T06:37:46;33;32;
45990;PMS5003;31721;41.740;-88.000;2023-03-23T06:40:14;33;29;
45990;PMS5003;31721;41.740;-88.000;2023-03-23T06:42:42;34;30;
45990;PMS5003;31721;41.740;-88.000;2023-03-23T06:45:10;27;24;
45990;PMS5003;31721;41.740;-88.000;2023-03-23T06:47:38;31;24;
45990;PMS5003;31721;41.740;-88.000;2023-03-23T06:50:07;28;24;
45990;PMS5003;31721;41.740;-88.000;2023-03-23T06:52:35;25;24;
45990;PMS5003;31721;41.740;-88.000;2023-03-23T06:55:03;27;26;
45990;PMS5003;31721;41.740;-88.000;2023-03-23T06:57:32;26;22;
45990;PMS5003;31721;41.740;-88.000;2023-03-23T07:00:00;32;24;
45990;PMS5003;31721;41.740;-88.000;2023-03-23T07:02:27;25;24;
45990;PMS5003;31721;41.740;-88.000;2023-03-23T07:04:56;31;24;
45990;PMS5003;31721;41.740;-88.000;2023-03-23T07:07:24;30;24;
45990;PMS5003;31721;41.740;-88.000;2023-03-23T07:09:52;24;22;
45990;PMS5003;31721;41.740;-88.000;2023-03-23T07:12:19;27;24;
45990;PMS5003;31721;41.740;-88.000;2023-03-23T07:14:47;22;20;
45990;PMS5003;31721;41.740;-88.000;2023-03-23T07:17:15;26;25;
45990;PMS5003;31721;41.740;-88.000;2023-03-23T07:19:43;30;26;
45990;PMS5003;31721;41.740;-88.000;2023-03-23T07:22:11;30;23;
45990;PMS5003;31721;41.740;-88.000;2023-03-23T07:24:38;24;24;
45990;PMS5003;31721;41.740;-88.000;2023-03-23T07:27:07;32;29;
45990;PMS5003;31721;41.740;-88.000;2023-03-23T07:29:34;30;30;
45990;PMS5003;31721;41.740;-88.000;2023-03-23T07:32:02;25;22;
45990;PMS5003;31721;41.740;-88.000;2023-03-23T07:34:31;30;26;
45990;PMS5003;31721;41.740;-88.000;2023-03-23T07:36:59;40;26;
45990;PMS5003;31721;41.740;-88.000;2023-03-23T07:39:27;25;23;
45990;PMS5003;31721;41.740;-88.000;2023-03-23T07:41:55;32;30;
45990;PMS5003;31721;41.740;-88.000;2023-03-23T07:44:22;32;28;
45990;PMS5003;31721;41.740;-88.000;2023-03-23T07:46:51;38;34;
45990;PMS5003;31721;41.740;-88.000;2023-03-23T07:49:19;41;39;
45990;PMS5003;31721;41.740;-88.000;2023-03-23T07:51:47;38;34;
45990;PMS5003;31721;41.740;-88.000;2023-03-23T07:54:15;39;35;
45990;PMS5003;31721;41.740;-88.000;2023-03-23T07:56:43;40;35;
45990;PMS5003;31721;41.740;-88.000;2023-03-23T07:59:11;34;27;
45990;PMS5003;31721;41.740;-88.000;2023-03-23T08:01:39;34;30;
45990;PMS5003;31721;41.740;-88.000;2023-03-23T08:04:07;37;35;
45990;PMS5003;31721;41.740;-88.000;2023-03-23T08:06:35;35;30;
45990;PMS5003;31721;41.740;-88.000;2023-03-23T08:09:03;38;34;
45990;PMS5003;31721;41.740;-88.000;2023-03-23T08:11:30;40;35;
45990;PMS5003;31721;41.740;-88.000;2023-03-23T08:13:58;37;33;
45990;PMS5003;31721;41.740;-88.000;2023-03-23T08:16:26;47;42;
45990;PMS5003;31721;41.740;-88.000;2023-03-23T08:18:53;46;38;
45990;PMS5003;31721;41.740;-88.000;2023-03-23T08:21:21;46;40;
45990;PMS5003;31721;41.740;-88.000;2023-03-23T08:23:48;40;35;
45990;PMS5003;31721;41.740;-88.000;2023-03-23T08:26:16;39;33;
45990;PMS5003;31721;41.740;-88.000;2023-03-23T08:28:44;47;38;
45990;PMS5003;31721;41.740;-88.000;2023-03-23T08:31:13;42;38;
45990;PMS5003;31721;41.740;-88.000;2023-03-23T08:33:41;42;39;
45990;PMS5003;31721;41.740;-88.000;2023-03-23T08:36:09;47;35;
45990;PMS5003;31721;41.740;-88.000;2023-03-23T08:38:37;41;37;
45990;PMS5003;31721;41.740;-88.000;2023-03-23T08:41:06;35;32;
45990;PMS5003;31721;41.740;-88.000;2023-03-23T08:43:34;49;42;
45990;PMS5003;31721;41.740;-88.000;2023-03-23T08:46:01;41;38;
45990;PMS5003;31721;41.740;-88.000;2023-03-23T08:48:29;45;36;
45990;PMS5003;31721;41.740;-88.000;2023-03-23T08:50:56;40;38;
45990;PMS5003;31721;41.740;-88.000;2023-03-23T08:53:25;44;38;
45990;PMS5003;31721;41.740;-88.000;2023-03-23T08:55:53;42;38;
45990;PMS5003;31721;41.740;-88.000;2023-03-23T08:58:21;41;36;
45990;PMS5003;31721;41.740;-88.000;2023-03-23T09:00:48;47;42;
45990;PMS5003;31721;41.740;-88.000;2023-03-23T09:03:16;31;30;
45990;PMS5003;31721;41.740;-88.000;2023-03-23T09:05:44;43;34;
45990;PMS5003;31721;41.740;-88.000;2023-03-23T09:08:11;38;34;
45990;PMS5003;31721;41.740;-88.000;2023-03-23T09:10:39;47;45;
45990;PMS5003;31721;41.740;-88.000;2023-03-23T09:13:07;48;41;
45990;PMS5003;31721;41.740;-88.000;2023-03-23T09:15:35;51;43;
45990;PMS5003;31721;41.740;-88.000;2023-03-23T09:18:03;36;33;
45990;PMS5003;31721;41.740;-88.000;2023-03-23T09:20:30;52;40;
45990;PMS5003;31721;41.740;-88.000;2023-03-23T09:22:58;39;35;
45990;PMS5003;31721;41.740;-88.000;2023-03-23T09:25:26;39;38;
45990;PMS5003;31721;41.740;-88.000;2023-03-23T09:27:55;38;33;
45990;PMS5003;31721;41.740;-88.000;2023-03-23T09:30:25;40;30;
45990;PMS5003;31721;41.740;-88.000;2023-03-23T09:32:55;45;36;
45990;PMS5003;31721;41.740;-88.000;2023-03-23T09:35:23;44;39;
45990;PMS5003;31721;41.740;-88.000;2023-03-23T09:37:51;36;29;
45990;PMS5003;31721;41.740;-88.000;2023-03-23T09:40:21;39;38;
45990;PMS5003;31721;41.740;-88.000;2023-03-23T09:42:56;42;34;
45990;PMS5003;31721;41.740;-88.000;2023-03-23T09:45:36;46;36;
45990;PMS5003;31721;41.740;-88.000;2023-03-23T09:48:17;46;41;
45990;PMS5003;31721;41.740;-88.000;2023-03-23T09:50:57;47;44;
45990;PMS5003;31721;41.740;-88.000;2023-03-23T09:53:30;38;35;
45990;PMS5003;31721;41.740;-88.000;2023-03-23T09:56:08;41;37;
45990;PMS5003;31721;41.740;-88.000;2023-03-23T09:58:41;39;36;
45990;PMS5003;31721;41.740;-88.000;2023-03-23T10:01:15;44;38;
45990;PMS5003;31721;41.740;-88.000;2023-03-23T10:03:48;33;29;
45990;PMS5003;31721;41.740;-88.000;2023-03-23T10:06:22;36;29;
45990;PMS5003;31721;41.740;-88.000;2023-03-23T10:08:51;42;35;
45990;PMS5003;31721;41.740;-88.000;2023-03-23T10:11:23;45;39;
45990;PMS5003;31721;41.740;-88.000;2023-03-23T10:14:02;35;29;
45990;PMS5003;31721;41.740;-88.000;2023-03-23T10:16:42;39;33;
45990;PMS5003;31721;41.740;-88.000;2023-03-23T10:19:17;46;39;
45990;PMS5003;31721;41.740;-88.000;2023-03-23T10:21:52;38;37;
45990;PMS5003;31721;41.740;-88.000;2023-03-23T10:24:26;42;39;
45990;PMS5003;31721;41.740;-88.000;2023-03-23T10:27:01;42;39;
45990;PMS5003;31721;41.740;-88.000;2023-03-23T10:29:38;39;30;
45990;PMS5003;31721;41.740;-88.000;2023-03-23T10:32:09;41;38;
45990;PMS5003;31721;41.740;-88.000;2023-03-23T10:34:41;46;38;
45990;PMS5003;31721;41.740;-88.000;2023-03-23T10:37:13;49;42;
45990;PMS5003;31721;41.740;-88.000;2023-03-23T10:39:46;42;31;
45990;PMS5003;31721;41.740;-88.000;2023-03-23T10:42:25;50;41;
45990;PMS5003;31721;41.740;-88.000;2023-03-23T10:44:55;36;34;
45990;PMS5003;31721;41.740;-88.000;2023-03-23T10:47:24;47;41;
45990;PMS5003;31721;41.740;-88.000;2023-03-23T10:49:54;41;33;
45990;PMS5003;31721;41.740;-88.000;2023-03-23T10:52:26;38;29;
45990;PMS5003;31721;41.740;-88.000;2023-03-23T10:55:01;36;33;
45990;PMS5003;31721;41.740;-88.000;2023-03-23T10:57:32;31;25;
45990;PMS5003;31721;41.740;-88.000;2023-03-23T11:00:02;35;33;
45990;PMS5003;31721;41.740;-88.000;2023-03-23T11:02:35;30;26;
45990;PMS5003;31721;41.740;-88.000;2023-03-23T11:05:09;35;28;
45990;PMS5003;31721;41.740;-88.000;2023-03-23T11:07:47;26;24;
45990;PMS5003;31721;41.740;-88.000;2023-03-23T11:10:21;28;25;
45990;PMS5003;31721;41.740;-88.000;2023-03-23T11:12:50;30;25;
45990;PMS5003;31721;41.740;-88.000;2023-03-23T11:15:25;33;30;
45990;PMS5003;31721;41.740;-88.000;2023-03-23T11:17:56;40;36;
45990;PMS5003;31721;41.740;-88.000;2023-03-23T11:20:27;40;36;
45990;PMS5003;31721;41.740;-88.000;2023-03-23T11:22:56;37;31;
45990;PMS5003;31721;41.740;-88.000;2023-03-23T11:25:24;43;38;
45990;PMS5003;31721;41.740;-88.000;2023-03-23T11:27:52;42;38;
45990;PMS5003;31721;41.740;-88.000;2023-03-23T11:30:23;46;37;
45990;PMS5003;31721;41.740;-88.000;2023-03-23T11:32:54;40;34;
45990;PMS5003;31721;41.740;-88.000;2023-03-23T11:35:26;39;38;
45990;PMS5003;31721;41.740;-88.000;2023-03-23T11:37:56;43;37;
45990;PMS5003;31721;41.740;-88.000;2023-03-23T11:40:26;35;32;
45990;PMS5003;31721;41.740;-88.000;2023-03-23T11:42:57;45;41;
45990;PMS5003;31721;41.740;-88.000;2023-03-23T11:45:32;43;35;
45990;PMS5003;31721;41.740;-88.000;2023-03-23T11:48:06;40;36;
45990;PMS5003;31721;41.740;-88.000;2023-03-23T11:50:48;32;30;
45990;PMS5003;31721;41.740;-88.000;2023-03-23T11:53:27;46;38;
45990;PMS5003;31721;41.740;-88.000;2023-03-23T11:56:07;45;38;
45990;PMS5003;31721;41.740;-88.000;2023-03-23T11:58:41;50;41;
45990;PMS5003;31721;41.740;-88.000;2023-03-23T12:01:11;37;29;
45990;PMS5003;31721;41.740;-88.000;2023-03-23T12:04:23;41;33;
45990;PMS5003;31721;41.740;-88.000;2023-03-23T12:07:03;35;31;
45990;PMS5003;31721;41.740;-88.000;2023-03-23T12:09:48;36;33;
45990;PMS5003;31721;41.740;-88.000;2023-03-23T12:12:24;29;28;
45990;PMS5003;31721;41.740;-88.000;2023-03-23T12:15:00;40;36;
45990;PMS5003;31721;41.740;-88.000;2023-03-23T12:17:38;33;31;
45990;PMS5003;31721;41.740;-88.000;2023-03-23T12:20:26;31;28;
45990;PMS5003;31721;41.740;-88.000;2023-03-23T12:23:03;31;29;
45990;PMS5003;31721;41.740;-88.000;2023-03-23T12:25:45;25;22;
45990;PMS5003;31721;41.740;-88.000;2023-03-23T12:28:31;29;27;
45990;PMS5003;31721;41.740;-88.000;2023-03-23T12:31:10;31;27;
45990;PMS5003;31721;41.740;-88.000;2023-03-23T12:33:45;25;22;
45990;PMS5003;31721;41.740;-88.000;2023-03-23T12:36:29;29;26;
45990;PMS5003;31721;41.740;-88.000;2023-03-23T12:39:08;33;30;
45990;PMS5003;31721;41.740;-88.000;2023-03-23T12:41:44;30;24;
45990;PMS5003;31721;41.740;-88.000;2023-03-23T12:44:18;29;25;
45990;PMS5003;31721;41.740;-88.000;2023-03-23T12:46:59;32;27;
45990;PMS5003;31721;41.740;-88.000;2023-03-23T12:49:34;29;25;
45990;PMS5003;31721;41.740;-88.000;2023-03-23T12:52:08;24;24;
45990;PMS5003;31721;41.740;-88.000;2023-03-23T12:54:41;40;35;
45990;PMS5003;31721;41.740;-88.000;2023-03-23T12:57:14;34;28;
45990;PMS5003;31721;41.740;-88.000;2023-03-23T12:59:47;23;22;
45990;PMS5003;31721;41.740;-88.000;2023-03-23T13:02:21;27;25;
45990;PMS5003;31721;41.740;-88.000;2023-03-23T13:04:55;28;28;
45990;PMS5003;31721;41.740;-88.000;2023-03-23T13:07:30;25;22;
45990;PMS5003;31721;41.740;-88.000;2023-03-23T13:10:03;28;24;
45990;PMS5003;31721;41.740;-88.000;2023-03-23T13:12:39;24;20;
45990;PMS5003;31721;41.740;-88.000;2023-03-23T13:15:13;30;29;
45990;PMS5003;31721;41.740;-88.000;2023-03-23T13:17:51;24;21;
45990;PMS5003;31721;41.740;-88.000;2023-03-23T13:20:32;25;21;
45990;PMS5003;31721;41.740;-88.000;2023-03-23T13:23:10;37;31;
45990;PMS5003;31721;41.740;-88.000;2023-03-23T13:25:46;37;30;
45990;PMS5003;31721;41.740;-88.000;2023-03-23T13:28:19;31;28;
45990;PMS5003;31721;41.740;-88.000;2023-03-23T13:30:57;33;29;
45990;PMS5003;31721;41.740;-88.000;2023-03-23T13:33:31;24;22;
45990;PMS5003;31721;41.740;-88.000;2023-03-23T13:36:04;32;28;
45990;PMS5003;31721;41.740;-88.000;2023-03-23T13:38:36;28;26;
45990;PMS5003;31721;41.740;-88.000;2023-03-23T13:41:06;31;27;
45990;PMS5003;31721;41.740;-88.000;2023-03-23T13:43:38;33;28;
45990;PMS5003;31721;41.740;-88.000;2023-03-23T13:46:09;23;21;
45990;PMS5003;31721;41.740;-88.000;2023-03-23T13:48:50;32;27;
45990;PMS5003;31721;41.740;-88.000;2023-03-23T13:51:33;33;30;
45990;PMS5003;31721;41.740;-88.000;2023-03-23T13:54:12;33;30;
45990;PMS5003;31721;41.740;-88.000;2023-03-23T13:56:50;30;26;
45990;PMS5003;31721;41.740;-88.000;2023-03-23T13:59:31;39;34;
45990;PMS5003;31721;41.740;-88.000;2023-03-23T14:02:35;27;26;
45990;PMS5003;31721;41.740;-88.000;2023-03-23T14:05:10;39;33;
45990;PMS5003;31721;41.740;-88.000;2023-03-23T14:07:55;31;23;
45990;PMS5003;31721;41.740;-88.000;2023-03-23T14:10:24;27;27;
45990;PMS5003;31721;41.740;-88.000;2023-03-23T14:12:58;33;26;
45990;PMS5003;31721;41.740;-88.000;2023-03-23T14:15:28;23;22;
45990;PMS5003;31721;41.740;-88.000;2023-03-23T14:17:57;26;19;
45990;PMS5003;31721;41.740;-88.000;2023-03-23T14:20:31;23;17;
45990;PMS5003;31721;41.740;-88.000;2023-03-23T14:23:03;23;21;
45990;PMS5003;31721;41.740;-88.000;2023-03-23T14:25:30;19;17;
45990;PMS5003;31721;41.740;-88.000;2023-03-23T14:27:59;21;18;
45990;PMS5003;31721;41.740;-88.000;2023-03-23T14:30:28;32;22;
45990;PMS5003;31721;41.740;-88.000;2023-03-23T14:33:03;19;17;
45990;PMS5003;31721;41.740;-88.000;2023-03-23T14:35:33;13;13;
45990;PMS5003;31721;41.740;-88.000;2023-03-23T14:38:03;19;13;
45990;PMS5003;31721;41.740;-88.000;2023-03-23T14:40:33;24;22;
45990;PMS5003;31721;41.740;-88.000;2023-03-23T14:43:02;31;22;
45990;PMS5003;31721;41.740;-88.000;2023-03-23T14:45:30;16;14;
45990;PMS5003;31721;41.740;-88.000;2023-03-23T14:47:59;22;18;
45990;PMS5003;31721;41.740;-88.000;2023-03-23T14:50:30;19;19;
45990;PMS5003;31721;41.740;-88.000;2023-03-23T14:53:11;21;18;
45990;PMS5003;31721;41.740;-88.000;2023-03-23T14:55:46;24;21;
45990;PMS5003;31721;41.740;-88.000;2023-03-23T14:58:16;19;18;
45990;PMS5003;31721;41.740;-88.000;2023-03-23T15:00:47;18;14;
45990;PMS5003;31721;41.740;-88.000;2023-03-23T15:03:20;18;17;
45990;PMS5003;31721;41.740;-88.000;2023-03-23T15:05:49;24;22;
45990;PMS5003;31721;41.740;-88.000;2023-03-23T15:08:23;18;16;
45990;PMS5003;31721;41.740;-88.000;2023-03-23T15:10:54;19;18;
45990;PMS5003;31721;41.740;-88.000;2023-03-23T15:13:29;28;26;
45990;PMS5003;31721;41.740;-88.000;2023-03-23T15:16:05;18;16;
45990;PMS5003;31721;41.740;-88.000;2023-03-23T15:18:39;30;23;
45990;PMS5003;31721;41.740;-88.000;2023-03-23T15:21:18;24;19;
45990;PMS5003;31721;41.740;-88.000;2023-03-23T15:23:50;22;16;
45990;PMS5003;31721;41.740;-88.000;2023-03-23T15:26:22;16;13;
45990;PMS5003;31721;41.740;-88.000;2023-03-23T15:29:25;21;17;
45990;PMS5003;31721;41.740;-88.000;2023-03-23T15:31:53;20;13;
45990;PMS5003;31721;41.740;-88.000;2023-03-23T15:34:28;19;18;
45990;PMS5003;31721;41.740;-88.000;2023-03-23T15:37:00;25;23;
45990;PMS5003;31721;41.740;-88.000;2023-03-23T15:39:28;17;17;
45990;PMS5003;31721;41.740;-88.000;2023-03-23T15:41:58;17;15;
45990;PMS5003;31721;41.740;-88.000;2023-03-23T15:44:28;11;11;
45990;PMS5003;31721;41.740;-88.000;2023-03-23T15:47:13;22;18;
45990;PMS5003;31721;41.740;-88.000;2023-03-23T15:49:42;14;13;
45990;PMS5003;31721;41.740;-88.000;2023-03-23T15:52:11;15;15;
45990;PMS5003;31721;41.740;-88.000;2023-03-23T15:54:46;28;18;
45990;PMS5003;31721;41.740;-88.000;2023-03-23T15:57:14;22;19;
45990;PMS5003;31721;41.740;-88.000;2023-03-23T15:59:42;17;15;
45990;PMS5003;31721;41.740;-88.000;2023-03-23T16:02:14;24;18;
45990;PMS5003;31721;41.740;-88.000;2023-03-23T16:04:46;25;18;
45990;PMS5003;31721;41.740;-88.000;2023-03-23T16:07:14;19;17;
45990;PMS5003;31721;41.740;-88.000;2023-03-23T16:09:43;24;20;
45990;PMS5003;31721;41.740;-88.000;2023-03-23T16:12:11;17;17;
45990;PMS5003;31721;41.740;-88.000;2023-03-23T16:14:39;17;14;